createdAt,value
2022-08-07T00:00:18.621Z,1.04
2022-08-07T00:01:43.421Z,1.04
2022-08-07T00:03:17.505Z,1.04
2022-08-07T00:04:17.611Z,1.04
2022-08-07T00:05:17.787Z,1.04
2022-08-07T00:06:17.862Z,1.04
2022-08-07T00:07:18.020Z,1.04
2022-08-07T00:08:18.115Z,1.04
2022-08-07T00:09:21.040Z,1.04
2022-08-07T00:10:25.830Z,1.04
2022-08-07T00:11:19.891Z,1.04
2022-08-07T00:12:19.369Z,1.04
2022-08-07T00:13:23.711Z,1.04
2022-08-07T00:14:19.275Z,1.04
2022-08-07T00:15:19.075Z,1.04
2022-08-07T00:16:21.668Z,1.04
2022-08-07T00:17:19.286Z,1.04
2022-08-07T00:18:20.402Z,1.04
2022-08-07T00:19:21.480Z,1.04
2022-08-07T00:20:29.667Z,1.04
2022-08-07T00:21:55.757Z,1.04
2022-08-07T00:22:24.255Z,1.04
2022-08-07T00:23:21.273Z,1.04
2022-08-07T00:24:20.202Z,1.04
2022-08-07T00:25:20.352Z,1.04
2022-08-07T00:26:31.484Z,1.04
2022-08-07T00:27:20.653Z,1.04
2022-08-07T00:28:22.061Z,1.04
2022-08-07T00:29:23.248Z,1.04
2022-08-07T00:30:21.865Z,1.04
2022-08-07T00:31:21.220Z,1.04
2022-08-07T00:32:28.319Z,1.04
2022-08-07T00:33:21.444Z,1.04
2022-08-07T00:34:22.071Z,1.04
2022-08-07T00:35:22.963Z,1.04
2022-08-07T00:36:21.824Z,1.04
2022-08-07T00:37:22.662Z,1.04
2022-08-07T00:38:31.020Z,1.04
2022-08-07T00:39:22.204Z,1.04
2022-08-07T00:40:36.086Z,1.04
2022-08-07T00:41:22.380Z,1.04
2022-08-07T00:42:25.436Z,1.04
2022-08-07T00:43:58.842Z,1.04
2022-08-07T00:44:22.735Z,1.04
2022-08-07T00:45:22.886Z,1.04
2022-08-07T00:46:22.996Z,1.04
2022-08-07T00:48:05.562Z,1.04
2022-08-07T00:48:24.883Z,1.04
2022-08-07T00:49:24.707Z,1.04
2022-08-07T00:50:46.427Z,1.04
2022-08-07T00:51:23.648Z,1.04
2022-08-07T00:52:23.801Z,1.04
2022-08-07T00:53:23.908Z,1.04
2022-08-07T00:54:24.053Z,1.04
2022-08-07T00:55:25.419Z,1.04
2022-08-07T00:56:30.095Z,1.04
2022-08-07T00:57:25.250Z,1.04
2022-08-07T00:58:24.518Z,1.04
2022-08-07T00:59:32.537Z,1.04
2022-08-07T01:00:24.784Z,1.04
2022-08-07T01:01:24.942Z,1.04
2022-08-07T01:02:28.958Z,1.04
2022-08-07T01:03:54.918Z,1.04
2022-08-07T01:04:25.275Z,1.04
2022-08-07T01:05:25.430Z,1.04
2022-08-07T01:06:25.606Z,1.04
2022-08-07T01:07:25.782Z,1.04
2022-08-07T01:08:26.138Z,1.04
2022-08-07T01:09:35.742Z,1.04
2022-08-07T01:10:26.042Z,1.04
2022-08-07T01:12:05.348Z,1.04
2022-08-07T01:13:26.495Z,1.04
2022-08-07T01:14:28.629Z,1.04
2022-08-07T01:15:35.592Z,1.04
2022-08-07T01:16:30.107Z,1.04
2022-08-07T01:17:27.176Z,1.04
2022-08-07T01:18:27.098Z,1.04
2022-08-07T01:19:27.220Z,1.04
2022-08-07T01:20:30.742Z,1.04
2022-08-07T01:21:27.573Z,1.04
2022-08-07T01:22:29.075Z,1.04
2022-08-07T01:23:34.742Z,1.04
2022-08-07T01:24:27.867Z,1.04
2022-08-07T01:25:40.079Z,1.04
2022-08-07T01:26:28.168Z,1.04
2022-08-07T01:27:32.227Z,1.04
2022-08-07T01:28:28.386Z,1.04
2022-08-07T01:29:31.585Z,1.04
2022-08-07T01:30:28.678Z,1.04
2022-08-07T01:31:29.962Z,1.04
2022-08-07T01:32:28.881Z,1.04
2022-08-07T01:33:30.088Z,1.04
2022-08-07T01:34:30.110Z,1.04
2022-08-07T01:35:37.058Z,1.04
2022-08-07T01:36:33.675Z,1.04
2022-08-07T01:37:29.745Z,1.04
2022-08-07T01:38:29.642Z,1.04
2022-08-07T01:39:39.484Z,1.04
2022-08-07T01:40:29.894Z,1.04
2022-08-07T01:41:29.999Z,1.04
2022-08-07T01:42:39.178Z,1.04
2022-08-07T01:43:34.867Z,1.04
2022-08-07T01:44:30.415Z,1.04
2022-08-07T01:45:36.105Z,1.04
2022-08-07T01:46:31.138Z,1.04
2022-08-07T01:48:18.664Z,1.04
2022-08-07T01:48:31.069Z,1.04
2022-08-07T01:49:31.841Z,1.04
2022-08-07T01:50:31.265Z,1.04
2022-08-07T01:52:03.032Z,1.04
2022-08-07T01:52:31.520Z,1.04
2022-08-07T01:54:08.412Z,1.04
2022-08-07T01:54:33.434Z,1.04
2022-08-07T01:55:33.314Z,1.04
2022-08-07T01:56:32.715Z,1.04
2022-08-07T01:57:33.998Z,1.04
2022-08-07T01:58:33.267Z,1.04
2022-08-07T01:59:32.232Z,1.04
2022-08-07T02:00:32.347Z,1.04
2022-08-07T02:01:59.497Z,1.04
2022-08-07T02:03:12.799Z,1.04
2022-08-07T02:03:42.970Z,1.04
2022-08-07T02:04:32.953Z,1.04
2022-08-07T02:05:43.541Z,1.04
2022-08-07T02:06:33.099Z,1.04
2022-08-07T02:07:36.017Z,1.04
2022-08-07T02:08:33.311Z,1.04
2022-08-07T02:09:52.476Z,1.04
2022-08-07T02:10:33.606Z,1.04
2022-08-07T02:12:04.385Z,1.04
2022-08-07T02:12:33.861Z,1.04
2022-08-07T02:13:57.063Z,1.04
2022-08-07T02:14:35.574Z,1.04
2022-08-07T02:15:34.272Z,1.04
2022-08-07T02:16:34.371Z,1.04
2022-08-07T02:17:34.865Z,1.04
2022-08-07T02:18:34.622Z,1.04
2022-08-07T02:20:03.755Z,1.04
2022-08-07T02:20:34.927Z,1.04
2022-08-07T02:21:54.963Z,1.04
2022-08-07T02:22:35.647Z,1.04
2022-08-07T02:23:35.892Z,1.04
2022-08-07T02:24:35.433Z,1.04
2022-08-07T02:26:11.086Z,1.04
2022-08-07T02:26:35.692Z,1.04
2022-08-07T02:27:35.794Z,1.04
2022-08-07T02:28:35.973Z,1.04
2022-08-07T02:29:36.935Z,1.04
2022-08-07T02:30:36.199Z,1.04
2022-08-07T02:31:36.298Z,1.04
2022-08-07T02:32:36.399Z,1.04
2022-08-07T02:33:42.377Z,1.04
2022-08-07T02:34:36.652Z,1.04
2022-08-07T02:36:27.392Z,1.04
2022-08-07T02:36:36.928Z,1.04
2022-08-07T02:37:37.062Z,1.04
2022-08-07T02:38:37.173Z,1.04
2022-08-07T02:39:42.662Z,1.04
2022-08-07T02:40:37.499Z,1.04
2022-08-07T02:41:37.570Z,1.04
2022-08-07T02:42:37.725Z,1.04
2022-08-07T02:43:38.994Z,1.04
2022-08-07T02:44:37.976Z,1.04
2022-08-07T02:45:59.577Z,1.04
2022-08-07T02:46:38.275Z,1.04
2022-08-07T02:47:38.538Z,1.04
2022-08-07T02:48:38.578Z,1.04
2022-08-07T02:49:55.818Z,1.04
2022-08-07T02:50:38.840Z,1.04
2022-08-07T02:51:42.259Z,1.04
2022-08-07T02:52:39.160Z,1.04
2022-08-07T02:53:39.259Z,1.04
2022-08-07T02:54:39.394Z,1.04
2022-08-07T02:56:02.080Z,1.04
2022-08-07T02:56:39.649Z,1.04
2022-08-07T02:57:39.747Z,1.04
2022-08-07T02:58:46.954Z,2
2022-08-07T02:59:40.007Z,2
2022-08-07T03:00:40.122Z,2
2022-08-07T03:01:40.385Z,2
2022-08-07T03:02:42.008Z,2
2022-08-07T03:03:42.438Z,3.04
2022-08-07T03:04:40.623Z,3.04
2022-08-07T03:05:40.764Z,3.04
2022-08-07T03:06:40.868Z,4
2022-08-07T03:07:43.346Z,4
2022-08-07T03:08:41.073Z,5.04
2022-08-07T03:09:42.544Z,6
2022-08-07T03:10:46.397Z,6
2022-08-07T03:11:52.049Z,7.04
2022-08-07T03:12:41.577Z,9.04
2022-08-07T03:13:49.355Z,10
2022-08-07T03:14:41.855Z,11.04
2022-08-07T03:15:48.067Z,13.04
2022-08-07T03:16:42.088Z,16
2022-08-07T03:17:52.748Z,18
2022-08-07T03:18:43.976Z,21.04
2022-08-07T03:19:42.440Z,25.04
2022-08-07T03:20:42.547Z,29.04
2022-08-07T03:21:45.557Z,33.04
2022-08-07T03:22:42.800Z,38
2022-08-07T03:24:18.757Z,44
2022-08-07T03:24:43.145Z,51.04
2022-08-07T03:25:43.203Z,59.04
2022-08-07T03:26:51.078Z,67.04
2022-08-07T03:27:58.978Z,77.04
2022-08-07T03:28:43.768Z,88
2022-08-07T03:29:44.733Z,85.04
2022-08-07T03:30:43.813Z,98
2022-08-07T03:31:46.282Z,110
2022-08-07T03:32:48.929Z,123.04
2022-08-07T03:33:44.223Z,139.04
2022-08-07T03:34:47.119Z,155.04
2022-08-07T03:35:50.350Z,172
2022-08-07T03:36:44.627Z,191.04
2022-08-07T03:37:46.570Z,212
2022-08-07T03:38:44.979Z,233.12
2022-08-07T03:39:46.588Z,256
2022-08-07T03:40:45.196Z,280
2022-08-07T03:41:47.589Z,307.04
2022-08-07T03:42:45.441Z,334.08
2022-08-07T03:43:57.046Z,364.16
2022-08-07T03:44:47.259Z,394.24
2022-08-07T03:45:47.390Z,425.28
2022-08-07T03:47:11.684Z,458.24
2022-08-07T03:47:48.312Z,493.12
2022-08-07T03:49:02.253Z,526.08
2022-08-07T03:49:47.868Z,562.24
2022-08-07T03:50:52.233Z,598.08
2022-08-07T03:51:55.300Z,637.12
2022-08-07T03:52:46.727Z,677.12
2022-08-07T03:53:50.363Z,717.44
2022-08-07T03:54:53.982Z,757.12
2022-08-07T03:55:53.196Z,799.36
2022-08-07T03:56:59.746Z,838.4
2022-08-07T03:58:09.185Z,875.52
2022-08-07T04:00:01.968Z,950.4
2022-08-07T04:00:47.685Z,989.44
2022-08-07T04:01:47.855Z,1031.04
2022-08-07T04:02:49.327Z,1056
2022-08-07T04:03:50.116Z,1086.08
2022-08-07T04:04:48.177Z,1118.08
2022-08-07T04:05:48.281Z,1143.04
2022-08-07T04:06:50.655Z,1172.48
2022-08-07T04:07:48.714Z,1214.08
2022-08-07T04:08:48.700Z,1289.6
2022-08-07T04:09:50.398Z,1536
2022-08-07T04:10:53.768Z,1688.32
2022-08-07T04:12:15.866Z,1756.16
2022-08-07T04:12:49.250Z,1845.76
2022-08-07T04:14:09.599Z,1945.6
2022-08-07T04:14:49.558Z,2040.32
2022-08-07T04:15:49.651Z,2136.32
2022-08-07T04:16:58.440Z,2255.36
2022-08-07T04:18:31.773Z,2341.12
2022-08-07T04:19:51.432Z,2542.08
2022-08-07T04:20:54.478Z,2641.92
2022-08-07T04:21:58.980Z,2752
2022-08-07T04:22:53.294Z,2874.88
2022-08-07T04:24:02.114Z,2974.72
2022-08-07T04:24:50.871Z,3082.24
2022-08-07T04:25:50.973Z,3187.2
2022-08-07T04:26:51.075Z,3294.72
2022-08-07T04:27:59.080Z,3402.24
2022-08-07T04:28:51.286Z,3507.2
2022-08-07T04:29:58.750Z,3604.48
2022-08-07T04:30:55.684Z,3719.68
2022-08-07T04:32:02.718Z,3827.2
2022-08-07T04:32:57.963Z,3932.16
2022-08-07T04:33:54.872Z,4047.36
2022-08-07T04:34:52.116Z,4129.28
2022-08-07T04:35:54.096Z,4247.04
2022-08-07T04:36:52.297Z,4349.44
2022-08-07T04:38:03.657Z,4477.44
2022-08-07T04:38:52.556Z,4590.08
2022-08-07T04:39:52.760Z,4697.6
2022-08-07T04:40:53.334Z,4815.36
2022-08-07T04:41:52.854Z,4928
2022-08-07T04:42:52.964Z,5035.52
2022-08-07T04:43:53.696Z,5137.92
2022-08-07T04:44:54.852Z,5248
2022-08-07T04:45:58.013Z,5360.64
2022-08-07T04:46:59.849Z,5483.52
2022-08-07T04:47:57.522Z,5621.76
2022-08-07T04:48:53.771Z,5744.64
2022-08-07T04:49:58.261Z,5872.64
2022-08-07T04:50:54.111Z,5995.52
2022-08-07T04:51:54.178Z,6108.16
2022-08-07T04:52:54.328Z,6231.04
2022-08-07T04:54:02.087Z,6318.08
2022-08-07T04:54:54.584Z,6451.2
2022-08-07T04:58:08.706Z,6558.72
2022-08-07T04:59:16.768Z,6891.52
2022-08-07T05:00:55.340Z,7111.68
2022-08-07T05:01:55.441Z,7229.44
2022-08-07T05:02:55.545Z,7301.12
2022-08-07T05:04:00.902Z,7424
2022-08-07T05:04:55.800Z,7541.76
2022-08-07T05:05:57.536Z,7659.52
2022-08-07T05:06:56.003Z,7767.04
2022-08-07T05:07:56.153Z,7859.2
2022-08-07T05:09:00.332Z,7971.84
2022-08-07T05:09:56.462Z,8079.36
2022-08-07T05:10:58.320Z,8151.04
2022-08-07T05:12:02.304Z,8268.8
2022-08-07T05:13:00.031Z,8396.8
2022-08-07T05:14:45.076Z,8494.08
2022-08-07T05:15:57.272Z,8663.04
2022-08-07T05:16:57.422Z,8744.96
2022-08-07T05:17:57.742Z,8801.28
2022-08-07T05:18:57.725Z,8878.08
2022-08-07T05:19:57.865Z,8949.76
2022-08-07T05:20:57.945Z,8990.72
2022-08-07T05:21:59.603Z,9047.04
2022-08-07T05:22:58.234Z,9093.12
2022-08-07T05:23:58.335Z,9154.56
2022-08-07T05:24:59.661Z,9205.76
2022-08-07T05:26:11.257Z,9216
2022-08-07T05:26:58.695Z,9216
2022-08-07T05:28:03.630Z,9210.88
2022-08-07T05:28:58.960Z,9210.88
2022-08-07T05:29:59.098Z,9221.12
2022-08-07T05:30:59.254Z,9195.52
2022-08-07T05:31:59.353Z,9185.28
2022-08-07T05:32:59.508Z,9190.399
2022-08-07T05:34:01.663Z,9144.319
2022-08-07T05:34:59.811Z,9128.96
2022-08-07T05:35:59.919Z,9088
2022-08-07T05:37:00.017Z,9052.16
2022-08-07T05:38:08.487Z,9006.08
2022-08-07T05:40:05.174Z,8965.12
2022-08-07T05:41:00.626Z,8893.439
2022-08-07T05:42:04.483Z,8862.72
2022-08-07T05:43:00.873Z,8806.399
2022-08-07T05:44:08.950Z,8770.56
2022-08-07T05:45:04.566Z,8744.96
2022-08-07T05:46:01.283Z,8714.24
2022-08-07T05:47:01.412Z,8663.04
2022-08-07T05:48:02.977Z,8616.96
2022-08-07T05:49:01.685Z,8586.24
2022-08-07T05:50:01.785Z,8524.8
2022-08-07T05:51:01.945Z,8473.6
2022-08-07T05:52:02.041Z,8401.92
2022-08-07T05:53:02.195Z,8330.24
2022-08-07T05:54:09.055Z,8284.16
2022-08-07T05:55:06.918Z,8227.84
2022-08-07T05:56:03.921Z,8181.76
2022-08-07T05:57:02.699Z,8140.8
2022-08-07T05:58:02.876Z,8099.84
2022-08-07T05:59:02.954Z,8074.24
2022-08-07T06:00:03.054Z,8038.4
2022-08-07T06:01:04.933Z,7997.44
2022-08-07T06:02:03.426Z,7956.48
2022-08-07T06:03:03.462Z,7930.88
2022-08-07T06:04:03.614Z,7895.04
2022-08-07T06:05:03.905Z,7843.84
2022-08-07T06:06:03.958Z,7828.48
2022-08-07T06:07:04.624Z,7802.88
2022-08-07T06:08:05.521Z,7787.52
2022-08-07T06:09:04.996Z,7767.04
2022-08-07T06:10:06.179Z,7741.44
2022-08-07T06:11:04.545Z,7710.72
2022-08-07T06:12:04.634Z,7700.48
2022-08-07T06:13:04.730Z,7680
2022-08-07T06:14:11.334Z,7680
2022-08-07T06:15:05.449Z,7680
2022-08-07T06:16:05.086Z,7674.88
2022-08-07T06:17:07.169Z,7659.52
2022-08-07T06:18:05.290Z,7674.88
2022-08-07T06:19:06.550Z,7674.88
2022-08-07T06:20:05.660Z,7674.88
2022-08-07T06:22:11.941Z,7674.88
2022-08-07T06:23:25.255Z,7680
2022-08-07T06:25:06.106Z,7695.36
2022-08-07T06:26:06.208Z,7700.48
2022-08-07T06:27:06.331Z,7695.36
2022-08-07T06:28:06.633Z,7700.48
2022-08-07T06:29:06.659Z,7705.6
2022-08-07T06:30:06.763Z,7715.84
2022-08-07T06:31:06.923Z,7720.96
2022-08-07T06:32:07.027Z,7731.2
2022-08-07T06:33:09.887Z,7741.44
2022-08-07T06:34:07.222Z,7751.68
2022-08-07T06:35:10.676Z,7792.64
2022-08-07T06:36:13.595Z,7797.76
2022-08-07T06:37:07.630Z,7802.88
2022-08-07T06:38:08.251Z,7818.24
2022-08-07T06:40:13.816Z,7833.6
2022-08-07T06:41:09.605Z,7874.56
2022-08-07T06:42:08.388Z,7895.04
2022-08-07T06:43:21.118Z,7895.04
2022-08-07T06:44:10.706Z,7910.4
2022-08-07T06:45:11.189Z,7936
2022-08-07T06:46:11.514Z,7976.96
2022-08-07T06:47:10.004Z,7976.96
2022-08-07T06:48:09.198Z,8002.56
2022-08-07T06:49:09.313Z,8017.92
2022-08-07T06:50:10.896Z,8038.4
2022-08-07T06:51:09.638Z,8043.52
2022-08-07T06:52:10.256Z,8053.76
2022-08-07T06:53:18.740Z,8074.24
2022-08-07T06:56:14.937Z,8140.8
2022-08-07T06:57:10.315Z,8145.92
2022-08-07T06:58:10.515Z,8151.04
2022-08-07T07:00:10.721Z,8161.28
2022-08-07T07:01:10.822Z,8202.24
2022-08-07T07:02:11.277Z,8227.84
2022-08-07T07:03:13.802Z,8248.32
2022-08-07T07:04:28.755Z,8263.68
2022-08-07T07:05:12.596Z,8279.04
2022-08-07T07:06:11.634Z,8309.76
2022-08-07T07:07:19.108Z,8330.24
2022-08-07T07:08:12.602Z,8350.72
2022-08-07T07:09:11.893Z,8371.2
2022-08-07T07:10:12.031Z,8391.68
2022-08-07T07:11:13.019Z,8417.28
2022-08-07T07:12:14.145Z,8437.76
2022-08-07T07:13:12.448Z,8463.359
2022-08-07T07:14:14.004Z,8478.72
2022-08-07T07:15:23.733Z,8509.439
2022-08-07T07:16:12.804Z,8524.8
2022-08-07T07:17:16.080Z,8565.76
2022-08-07T07:18:13.060Z,8586.24
2022-08-07T07:19:54.433Z,8611.84
2022-08-07T07:20:13.379Z,8632.319
2022-08-07T07:21:19.502Z,8663.04
2022-08-07T07:22:34.520Z,8678.399
2022-08-07T07:24:06.829Z,8704
2022-08-07T07:24:13.886Z,8724.479
2022-08-07T07:26:31.812Z,8744.96
2022-08-07T07:27:14.280Z,8806.399
2022-08-07T07:28:30.017Z,8816.64
2022-08-07T07:29:38.771Z,8847.359
2022-08-07T07:30:26.274Z,8878.08
2022-08-07T07:31:17.190Z,8913.92
2022-08-07T07:32:14.963Z,8939.52
2022-08-07T07:33:15.168Z,8965.12
2022-08-07T07:34:15.486Z,8990.72
2022-08-07T07:35:15.290Z,9041.92
2022-08-07T07:36:17.396Z,9062.399
2022-08-07T07:37:22.309Z,9103.359
2022-08-07T07:38:15.697Z,9144.319
2022-08-07T07:39:15.824Z,9175.04
2022-08-07T07:40:16.007Z,9195.52
2022-08-07T07:41:16.053Z,9241.6
2022-08-07T07:42:17.604Z,9267.2
2022-08-07T07:43:18.630Z,9313.28
2022-08-07T07:44:21.442Z,9349.12
2022-08-07T07:45:16.560Z,9410.56
2022-08-07T07:46:36.222Z,9451.52
2022-08-07T07:47:22.810Z,9472
2022-08-07T07:48:24.258Z,9502.72
2022-08-07T07:50:31.929Z,9548.8
2022-08-07T07:51:17.369Z,9620.479
2022-08-07T07:52:17.473Z,9676.8
2022-08-07T07:53:20.802Z,9712.64
2022-08-07T07:54:17.727Z,9768.96
2022-08-07T07:55:17.837Z,9809.92
2022-08-07T07:56:17.948Z,9856
2022-08-07T07:57:18.084Z,9881.6
2022-08-07T07:58:18.531Z,9932.8
2022-08-07T07:59:18.294Z,9973.76
2022-08-07T08:00:21.297Z,10024.96
2022-08-07T08:02:01.469Z,10076.16
2022-08-07T08:02:22.800Z,10152.96
2022-08-07T08:04:05.854Z,10224.64
2022-08-07T08:04:18.912Z,10296.319
2022-08-07T08:05:18.998Z,10357.76
2022-08-07T08:06:19.102Z,10460.16
2022-08-07T08:07:20.101Z,10567.68
2022-08-07T08:08:34.031Z,10711.04
2022-08-07T08:09:19.460Z,10905.6
2022-08-07T08:10:35.769Z,11141.12
2022-08-07T08:11:47.460Z,11458.56
2022-08-07T08:12:43.147Z,11827.2
2022-08-07T08:13:19.963Z,12277.76
2022-08-07T08:14:24.345Z,12687.359
2022-08-07T08:15:21.819Z,13506.56
2022-08-07T08:16:20.319Z,14540.8
2022-08-07T08:17:56.879Z,15155.199
2022-08-07T08:18:20.732Z,15667.199
2022-08-07T08:20:15.806Z,16107.52
2022-08-07T08:20:23.825Z,16486.4
2022-08-07T08:21:20.983Z,16957.44
2022-08-07T08:22:21.122Z,17397.76
2022-08-07T08:23:21.188Z,17827.84
2022-08-07T08:24:36.031Z,18165.76
2022-08-07T08:25:25.174Z,18411.52
2022-08-07T08:26:21.590Z,18769.92
2022-08-07T08:27:21.725Z,19210.24
2022-08-07T08:28:23.806Z,19558.4
2022-08-07T08:29:21.996Z,19968
2022-08-07T08:30:22.151Z,20234.24
2022-08-07T08:31:22.711Z,20367.36
2022-08-07T08:32:25.295Z,20439.04
2022-08-07T08:33:22.517Z,20674.56
2022-08-07T08:34:26.908Z,21053.44
2022-08-07T08:35:22.805Z,21299.2
2022-08-07T08:36:25.529Z,21544.96
2022-08-07T08:37:59.042Z,21790.72
2022-08-07T08:38:25.953Z,21954.56
2022-08-07T08:39:23.302Z,22077.44
2022-08-07T08:40:28.724Z,22179.84
2022-08-07T08:41:23.569Z,22405.12
2022-08-07T08:42:25.750Z,22650.88
2022-08-07T08:43:32.129Z,23060.48
2022-08-07T08:44:29.517Z,23367.68
2022-08-07T08:45:26.777Z,23511.04
2022-08-07T08:46:24.132Z,23756.8
2022-08-07T08:47:24.985Z,23859.2
2022-08-07T08:48:28.357Z,24186.88
2022-08-07T08:49:32.630Z,24657.92
2022-08-07T08:50:28.127Z,25088
2022-08-07T08:51:26.345Z,25538.56
2022-08-07T08:52:24.838Z,25907.2
2022-08-07T08:53:24.946Z,26480.64
2022-08-07T08:54:25.056Z,27381.76
2022-08-07T08:55:54.055Z,28549.12
2022-08-07T08:56:25.250Z,28282.88
2022-08-07T08:57:25.358Z,30515.2
2022-08-07T08:58:28.682Z,27996.16
2022-08-07T08:59:25.603Z,10373.12
2022-08-07T09:00:28.712Z,14981.12
2022-08-07T09:01:29.750Z,31375.36
2022-08-07T09:02:34.904Z,31334.4
2022-08-07T09:03:47.284Z,31232
2022-08-07T09:04:28.586Z,31825.92
2022-08-07T09:05:32.262Z,31969.28
2022-08-07T09:06:26.522Z,32378.88
2022-08-07T09:07:26.626Z,32665.6
2022-08-07T09:08:28.758Z,33136.64
2022-08-07T09:09:30.355Z,33566.72
2022-08-07T09:10:27.024Z,34222.08
2022-08-07T09:11:43.923Z,34713.6
2022-08-07T09:12:30.713Z,35041.28
2022-08-07T09:13:37.239Z,35614.72
2022-08-07T09:14:29.625Z,36003.84
2022-08-07T09:16:20.801Z,36003.84
2022-08-07T09:16:30.111Z,36495.36
2022-08-07T09:17:33.903Z,36945.92
2022-08-07T09:18:28.010Z,37683.2
2022-08-07T09:19:45.000Z,37642.24
2022-08-07T09:20:35.798Z,37683.2
2022-08-07T09:21:34.582Z,9968.64
2022-08-07T09:24:34.340Z,36843.52
2022-08-07T09:25:28.905Z,43417.6
2022-08-07T09:26:29.060Z,44277.76
2022-08-07T09:27:29.416Z,45096.96
2022-08-07T09:30:02.693Z,45957.12
2022-08-07T09:30:29.565Z,50012.16
2022-08-07T09:31:33.554Z,18350.08
2022-08-07T09:32:29.848Z,18350.08
2022-08-07T09:33:41.476Z,19476.48
2022-08-07T09:34:30.069Z,48209.92
2022-08-07T09:36:01.620Z,49356.8
2022-08-07T09:36:35.159Z,21749.76
2022-08-07T09:37:33.619Z,20551.68
2022-08-07T09:38:30.629Z,18810.88
2022-08-07T09:39:53.478Z,17735.68
2022-08-07T09:40:30.964Z,17008.64
2022-08-07T09:41:36.081Z,16046.08
2022-08-07T09:42:33.499Z,16097.279
2022-08-07T09:43:40.433Z,18114.56
2022-08-07T09:44:45.300Z,56811.52
2022-08-07T09:47:20.096Z,56320
2022-08-07T09:48:40.089Z,17111.04
2022-08-07T09:50:00.334Z,17018.88
2022-08-07T09:50:32.252Z,36147.2
2022-08-07T09:52:11.075Z,57712.64
2022-08-07T09:53:40.722Z,56033.28
2022-08-07T09:54:32.711Z,55418.88
2022-08-07T09:55:37.026Z,55132.16
2022-08-07T09:56:33.997Z,54476.8
2022-08-07T09:57:36.532Z,53903.36
2022-08-07T09:58:33.269Z,54763.52
2022-08-07T09:59:37.161Z,55091.2
2022-08-07T10:00:33.524Z,55787.52
2022-08-07T10:01:50.893Z,56770.56
2022-08-07T10:02:33.828Z,57507.84
2022-08-07T10:04:04.476Z,57794.56
2022-08-07T10:04:38.181Z,58286.08
2022-08-07T10:05:59.952Z,59187.2
2022-08-07T10:06:35.630Z,60088.32
2022-08-07T10:07:40.041Z,60661.76
2022-08-07T10:08:34.601Z,61808.64
2022-08-07T10:09:34.699Z,63160.32
2022-08-07T10:10:54.070Z,63406.08
2022-08-07T10:12:00.682Z,63078.4
2022-08-07T10:12:35.048Z,63447.04
2022-08-07T10:13:55.868Z,63733.76
2022-08-07T10:14:35.351Z,63569.92
2022-08-07T10:15:37.729Z,63569.92
2022-08-07T10:16:35.717Z,63651.84
2022-08-07T10:17:36.239Z,64061.44
2022-08-07T10:18:35.858Z,64757.76
2022-08-07T10:19:37.701Z,65085.44
2022-08-07T10:20:36.067Z,65167.36
2022-08-07T10:21:51.201Z,65863.68
2022-08-07T10:22:36.664Z,66355.2
2022-08-07T10:24:04.361Z,66969.6
2022-08-07T10:24:38.202Z,67829.76
2022-08-07T10:25:42.696Z,68730.88
2022-08-07T10:26:36.775Z,69591.04
2022-08-07T10:27:44.513Z,70123.52
2022-08-07T10:28:37.026Z,70451.2
2022-08-07T10:29:39.353Z,70778.88
2022-08-07T10:30:37.230Z,71598.08
2022-08-07T10:31:38.573Z,72785.92
2022-08-07T10:32:51.206Z,72785.92
2022-08-07T10:34:05.390Z,74178.56
2022-08-07T10:34:37.841Z,75816.96
2022-08-07T10:35:53.740Z,77291.52
2022-08-07T10:36:38.091Z,78766.08
2022-08-07T10:37:48.816Z,77168.64
2022-08-07T10:38:48.599Z,67624.96
2022-08-07T10:39:41.152Z,79749.12
2022-08-07T10:40:38.602Z,81960.96
2022-08-07T10:41:46.140Z,16404.48
2022-08-07T10:42:38.858Z,66478.08
2022-08-07T10:43:39.006Z,68526.08
2022-08-07T10:44:39.237Z,80609.28
2022-08-07T10:45:43.970Z,63610.88
2022-08-07T10:46:39.462Z,19537.92
2022-08-07T10:47:51.336Z,81879.04
2022-08-07T10:48:39.719Z,83148.8
2022-08-07T10:49:45.454Z,83558.4
2022-08-07T10:50:39.976Z,85196.8
2022-08-07T10:51:57.439Z,85934.08
2022-08-07T10:52:40.271Z,76840.96
2022-08-07T10:53:42.078Z,45670.4
2022-08-07T10:54:40.528Z,86507.52
2022-08-07T10:55:40.686Z,85524.48
2022-08-07T10:56:40.832Z,83189.76
2022-08-07T10:57:40.987Z,84377.6
2022-08-07T10:58:41.085Z,85032.96
2022-08-07T10:59:43.111Z,86097.92
2022-08-07T11:00:43.179Z,86917.12
2022-08-07T11:01:51.208Z,87244.8
2022-08-07T11:02:41.686Z,86589.44
2022-08-07T11:03:43.007Z,86917.12
2022-08-07T11:04:41.893Z,86016
2022-08-07T11:05:49.337Z,87162.88
2022-08-07T11:06:42.162Z,87982.08
2022-08-07T11:07:57.158Z,89456.64
2022-08-07T11:08:42.454Z,76062.72
2022-08-07T11:10:08.255Z,53084.16
2022-08-07T11:10:42.759Z,16885.76
2022-08-07T11:11:42.863Z,33505.28
2022-08-07T11:12:43.161Z,34590.72
2022-08-07T11:14:43.172Z,52224
2022-08-07T11:15:43.470Z,88309.76
2022-08-07T11:16:45.862Z,52510.72
2022-08-07T11:17:45.697Z,27033.6
2022-08-07T11:18:43.884Z,22896.64
2022-08-07T11:19:43.972Z,90275.84
2022-08-07T11:20:44.079Z,94863.36
2022-08-07T11:21:44.233Z,94289.91
2022-08-07T11:22:46.066Z,94371.84
2022-08-07T11:23:45.503Z,96256
2022-08-07T11:24:45.469Z,96092.16
2022-08-07T11:25:48.330Z,96747.52
2022-08-07T11:26:48.401Z,96665.6
2022-08-07T11:28:02.237Z,98140.16
2022-08-07T11:28:45.041Z,33955.84
2022-08-07T11:29:48.257Z,27095.04
2022-08-07T11:30:45.296Z,21053.44
2022-08-07T11:31:45.452Z,101416.96
2022-08-07T11:32:45.580Z,33669.12
2022-08-07T11:33:54.550Z,20203.52
2022-08-07T11:34:45.804Z,19138.56
2022-08-07T11:35:59.338Z,18196.48
2022-08-07T11:36:46.010Z,15831.04
2022-08-07T11:37:58.530Z,16506.88
2022-08-07T11:38:50.452Z,17500.16
2022-08-07T11:39:59.622Z,98058.23
2022-08-07T11:40:49.696Z,22384.64
2022-08-07T11:42:00.555Z,24719.36
2022-08-07T11:42:46.820Z,42106.88
2022-08-07T11:43:54.770Z,38563.84
2022-08-07T11:44:52.177Z,90357.76
2022-08-07T11:45:49.808Z,96092.16
2022-08-07T11:46:48.731Z,96256
2022-08-07T11:47:53.772Z,96337.91
2022-08-07T11:49:04.323Z,96337.91
2022-08-07T11:49:50.953Z,95846.4
2022-08-07T11:50:56.412Z,95846.4
2022-08-07T11:51:47.937Z,96010.23
2022-08-07T11:52:48.045Z,95764.48
2022-08-07T11:53:57.025Z,95846.4
2022-08-07T11:54:51.468Z,95846.4
2022-08-07T11:56:08.933Z,95764.48
2022-08-07T11:56:52.183Z,95928.32
2022-08-07T11:57:58.335Z,95928.32
2022-08-07T11:58:49.016Z,96256
2022-08-07T12:00:08.492Z,96665.6
2022-08-07T12:00:53.775Z,97320.96
2022-08-07T12:01:59.000Z,97812.48
2022-08-07T12:02:52.022Z,98467.84
2022-08-07T12:03:49.490Z,98713.6
2022-08-07T12:04:49.564Z,98795.52
2022-08-07T12:05:49.860Z,98959.36
2022-08-07T12:06:51.873Z,99450.88
2022-08-07T12:07:53.584Z,101089.28
2022-08-07T12:08:50.070Z,101990.4
2022-08-07T12:09:50.220Z,102318.08
2022-08-07T12:11:00.870Z,102645.76
2022-08-07T12:12:08.956Z,103055.36
2022-08-07T12:12:50.631Z,103956.48
2022-08-07T12:13:50.796Z,104611.84
2022-08-07T12:14:51.408Z,105267.2
2022-08-07T12:16:05.559Z,106168.32
2022-08-07T12:16:51.184Z,107069.44
2022-08-07T12:17:59.157Z,108052.48
2022-08-07T12:18:51.488Z,109199.36
2022-08-07T12:19:56.286Z,109281.28
2022-08-07T12:20:51.794Z,108052.48
2022-08-07T12:21:55.297Z,108789.76
2022-08-07T12:22:56.082Z,110182.4
2022-08-07T12:24:05.219Z,110755.84
2022-08-07T12:24:52.396Z,110182.4
2022-08-07T12:26:00.701Z,109854.72
2022-08-07T12:26:52.560Z,110510.08
2022-08-07T12:28:04.175Z,112066.55
2022-08-07T12:28:53.266Z,111329.28
2022-08-07T12:29:52.858Z,24002.56
2022-08-07T12:30:53.257Z,79953.92
2022-08-07T12:32:02.352Z,51118.08
2022-08-07T12:32:53.271Z,111247.36
2022-08-07T12:33:56.755Z,113131.52
2022-08-07T12:34:56.294Z,113377.28
2022-08-07T12:35:57.641Z,111902.72
2022-08-07T12:36:53.772Z,111575.04
2022-08-07T12:38:08.799Z,113049.59
2022-08-07T12:38:57.333Z,114688
2022-08-07T12:39:54.152Z,46039.04
2022-08-07T12:40:54.322Z,109690.88
2022-08-07T12:41:54.430Z,116408.32
2022-08-07T12:42:57.182Z,116080.64
2022-08-07T12:44:01.621Z,28815.36
2022-08-07T12:44:54.840Z,25333.76
2022-08-07T12:45:54.960Z,113623.04
2022-08-07T12:46:55.103Z,112312.32